To NAV CANADA Home Page Login to a new session Search on AWWS site Feedback and Comments Disclaimer Vers la page française équivalente Tips FAQ What's new on the site To the Forecasts and Observations / NOTAM section To "File a Flight Plan" website Publications and other links Update of the User's profile FIC Telephone Numbers My Weather Data Folder Route Weather Data Regional Weather Data Local Weather Data To the Forecasts and Observations / NOTAM section
Request Generated 03/05/2015 at 04:01:56 UTC . Weather information available at that time is displayed.

METAR/TAF

If you find any discrepancies between the coded METAR/TAF and the plain language METAR/TAF please use the coded METAR/TAF. LWIS bulletins are not decoded in plain language.

VANCOUVER/VANCOUVER INTL/BC    

METAR CYVR 050300Z 01002KT 30SM SCT180 OVC240 05/M01 A3030 RMK AS3CS5 SLP261=
METAR
LOCATION
CYVR - VANCOUVER/VANCOUVER INTL/BC
DATE - TIME
05 MARCH 2015 - 0300 UTC
WIND
10 TRUE @ 2  KNOTS
VISIBILITY
30 STAT.  MILES
RUNWAY VISUAL RANGE
WEATHER
CLOUDINESS
SCATTERED CLOUDS (3/8 - 4/8) 18000  FT
OVERCAST 24000  FT
TEMP / DEWPOINT
5 C / -1 C
ALTIMETER
30.30 IN HG
RECENT WEATHER
WIND SHEAR

METAR CYVR 050200Z 33003KT 30SM FEW190 BKN220 OVC250 05/01 A3029 RMK AS2CI4CS2 SLP256=
METAR
LOCATION
CYVR - VANCOUVER/VANCOUVER INTL/BC
DATE - TIME
05 MARCH 2015 - 0200 UTC
WIND
330 TRUE @ 3  KNOTS
VISIBILITY
30 STAT.  MILES
RUNWAY VISUAL RANGE
WEATHER
CLOUDINESS
FEW CLOUDS (1/8 - 2/8) 19000  FT
BROKEN CLOUDS (5/8 - 7/8) 22000  FT
OVERCAST 25000  FT
TEMP / DEWPOINT
5 C / 1 C
ALTIMETER
30.29 IN HG
RECENT WEATHER
WIND SHEAR

METAR CYVR 050100Z 32003KT 30SM BKN220 OVC250 07/M00 A3029 RMK CI5CI3 SLP257=
METAR
LOCATION
CYVR - VANCOUVER/VANCOUVER INTL/BC
DATE - TIME
05 MARCH 2015 - 0100 UTC
WIND
320 TRUE @ 3  KNOTS
VISIBILITY
30 STAT.  MILES
RUNWAY VISUAL RANGE
WEATHER
CLOUDINESS
BROKEN CLOUDS (5/8 - 7/8) 22000  FT
OVERCAST 25000  FT
TEMP / DEWPOINT
7 C / 0 C
ALTIMETER
30.29 IN HG
RECENT WEATHER
WIND SHEAR

TAF CYVR 050238Z 0503/0606 VRB03KT P6SM FEW180 BKN250 FM051200 09006KT P6SM SCT040 BKN140 FM052000 26006KT P6SM FEW040 SCT200 RMK NXT FCST BY 050600Z=
TAF
LOCATION

CYVR - VANCOUVER/VANCOUVER INTL/BC
VALIDITY [UTC]
05 MAR - 0238 to
06 MAR - 0600
 
TIMES
[UTC]
WIND
[DEGREES TRUE]
VISIBILITY
[STAT. MILES]
WEATHER
CLOUDINESS
[FEET AGL]
 
05 MAR - 0300 to
05 MAR - 1200
VARIABLE @ 3 KNOTS
6+
NIL
18000 FEW
25000 BROKEN
 
05 MAR - 1200 to
05 MAR - 2000
90 @ 6 KNOTS
6+
NIL
4000 SCATTERED
14000 BROKEN
 
05 MAR - 2000 to
06 MAR - 0600
260 @ 6 KNOTS
6+
NIL
4000 FEW
20000 SCATTERED
REMARKS
THE NEXT FORECAST WILL BE ISSUED BY 0600 UTC ON DAY 05


Your time UTC time
Weather data provided by Environment Canada and NAV CANADA